sensor_id;sensor_type;location;lat;lon;timestamp;temperature;humidity
71879;DHT22;59755;43.834;4.364;2022-09-09T00:01:20;21.00;63.40
71879;DHT22;59755;43.834;4.364;2022-09-09T00:03:57;21.00;63.10
71879;DHT22;59755;43.834;4.364;2022-09-09T00:06:30;21.00;63.00
71879;DHT22;59755;43.834;4.364;2022-09-09T00:11:29;20.90;62.60
71879;DHT22;59755;43.834;4.364;2022-09-09T00:14:00;21.00;61.90
71879;DHT22;59755;43.834;4.364;2022-09-09T00:16:32;20.90;62.40
71879;DHT22;59755;43.834;4.364;2022-09-09T00:19:24;20.80;62.60
71879;DHT22;59755;43.834;4.364;2022-09-09T00:22:19;20.70;62.70
71879;DHT22;59755;43.834;4.364;2022-09-09T00:24:55;20.70;62.70
71879;DHT22;59755;43.834;4.364;2022-09-09T00:27:45;20.80;62.30
71879;DHT22;59755;43.834;4.364;2022-09-09T00:30:23;20.80;62.20
71879;DHT22;59755;43.834;4.364;2022-09-09T00:32:53;20.80;62.20
71879;DHT22;59755;43.834;4.364;2022-09-09T00:37:53;20.80;62.20
71879;DHT22;59755;43.834;4.364;2022-09-09T00:40:31;20.80;62.10
71879;DHT22;59755;43.834;4.364;2022-09-09T00:43:29;20.90;61.90
71879;DHT22;59755;43.834;4.364;2022-09-09T00:54:40;20.70;62.90
71879;DHT22;59755;43.834;4.364;2022-09-09T00:57:36;20.70;63.00
71879;DHT22;59755;43.834;4.364;2022-09-09T01:05:42;20.70;62.60
71879;DHT22;59755;43.834;4.364;2022-09-09T01:11:25;20.50;62.80
71879;DHT22;59755;43.834;4.364;2022-09-09T01:16:53;20.40;63.40
71879;DHT22;59755;43.834;4.364;2022-09-09T01:19:33;20.30;63.70
71879;DHT22;59755;43.834;4.364;2022-09-09T01:28:04;20.20;63.80
71879;DHT22;59755;43.834;4.364;2022-09-09T01:30:37;20.30;63.40
71879;DHT22;59755;43.834;4.364;2022-09-09T01:33:03;20.10;64.00
71879;DHT22;59755;43.834;4.364;2022-09-09T01:38:04;20.30;62.40
71879;DHT22;59755;43.834;4.364;2022-09-09T01:40:30;20.40;62.00
71879;DHT22;59755;43.834;4.364;2022-09-09T01:42:56;20.40;61.80
71879;DHT22;59755;43.834;4.364;2022-09-09T01:45:22;20.50;60.70
71879;DHT22;59755;43.834;4.364;2022-09-09T01:47:50;20.50;60.60
71879;DHT22;59755;43.834;4.364;2022-09-09T01:50:17;20.50;60.00
71879;DHT22;59755;43.834;4.364;2022-09-09T01:52:44;20.60;59.30
71879;DHT22;59755;43.834;4.364;2022-09-09T01:55:11;20.60;59.30
71879;DHT22;59755;43.834;4.364;2022-09-09T01:57:59;20.60;59.00
71879;DHT22;59755;43.834;4.364;2022-09-09T02:00:29;20.60;59.10
71879;DHT22;59755;43.834;4.364;2022-09-09T02:05:49;20.60;59.60
71879;DHT22;59755;43.834;4.364;2022-09-09T02:08:33;20.60;59.80
71879;DHT22;59755;43.834;4.364;2022-09-09T02:11:09;20.60;59.60
71879;DHT22;59755;43.834;4.364;2022-09-09T02:13:37;20.60;59.60
71879;DHT22;59755;43.834;4.364;2022-09-09T02:16:13;20.60;59.50
71879;DHT22;59755;43.834;4.364;2022-09-09T02:21:27;20.70;58.70
71879;DHT22;59755;43.834;4.364;2022-09-09T02:23:56;20.70;58.50
71879;DHT22;59755;43.834;4.364;2022-09-09T02:26:25;20.70;58.40
71879;DHT22;59755;43.834;4.364;2022-09-09T02:28:54;20.80;58.20
71879;DHT22;59755;43.834;4.364;2022-09-09T02:31:22;20.70;58.50
71879;DHT22;59755;43.834;4.364;2022-09-09T02:33:56;20.70;58.60
71879;DHT22;59755;43.834;4.364;2022-09-09T02:36:25;20.60;58.70
71879;DHT22;59755;43.834;4.364;2022-09-09T02:38:51;20.60;59.00
71879;DHT22;59755;43.834;4.364;2022-09-09T02:41:23;20.70;59.00
71879;DHT22;59755;43.834;4.364;2022-09-09T02:43:50;20.70;59.40
71879;DHT22;59755;43.834;4.364;2022-09-09T02:49:05;20.60;59.80
71879;DHT22;59755;43.834;4.364;2022-09-09T02:54:39;20.50;60.30
71879;DHT22;59755;43.834;4.364;2022-09-09T02:57:17;20.50;60.10
71879;DHT22;59755;43.834;4.364;2022-09-09T02:59:44;20.40;60.50
71879;DHT22;59755;43.834;4.364;2022-09-09T03:02:11;20.30;61.00
71879;DHT22;59755;43.834;4.364;2022-09-09T03:04:37;20.30;61.40
71879;DHT22;59755;43.834;4.364;2022-09-09T03:07:03;20.20;61.50
71879;DHT22;59755;43.834;4.364;2022-09-09T03:09:30;20.20;61.70
71879;DHT22;59755;43.834;4.364;2022-09-09T03:11:56;20.10;62.00
71879;DHT22;59755;43.834;4.364;2022-09-09T03:14:22;20.20;61.90
71879;DHT22;59755;43.834;4.364;2022-09-09T03:16:51;20.10;62.10
71879;DHT22;59755;43.834;4.364;2022-09-09T03:19:17;20.00;62.20
71879;DHT22;59755;43.834;4.364;2022-09-09T03:21:44;20.00;62.20
71879;DHT22;59755;43.834;4.364;2022-09-09T03:24:11;20.00;62.20
71879;DHT22;59755;43.834;4.364;2022-09-09T03:26:36;19.90;62.40
71879;DHT22;59755;43.834;4.364;2022-09-09T03:29:04;19.90;62.60
71879;DHT22;59755;43.834;4.364;2022-09-09T03:31:35;19.90;62.40
71879;DHT22;59755;43.834;4.364;2022-09-09T03:34:02;20.00;62.30
71879;DHT22;59755;43.834;4.364;2022-09-09T03:36:28;20.10;61.30
71879;DHT22;59755;43.834;4.364;2022-09-09T03:38:55;20.10;61.20
71879;DHT22;59755;43.834;4.364;2022-09-09T03:41:24;20.00;61.50
71879;DHT22;59755;43.834;4.364;2022-09-09T03:43:51;20.10;61.90
71879;DHT22;59755;43.834;4.364;2022-09-09T03:46:17;20.10;61.20
71879;DHT22;59755;43.834;4.364;2022-09-09T03:48:43;20.00;61.50
71879;DHT22;59755;43.834;4.364;2022-09-09T03:51:09;20.10;61.80
71879;DHT22;59755;43.834;4.364;2022-09-09T03:53:36;20.10;61.30
71879;DHT22;59755;43.834;4.364;2022-09-09T03:56:03;20.10;61.40
71879;DHT22;59755;43.834;4.364;2022-09-09T03:58:29;20.00;61.80
71879;DHT22;59755;43.834;4.364;2022-09-09T04:00:57;20.00;61.40
71879;DHT22;59755;43.834;4.364;2022-09-09T04:03:24;19.90;61.90
71879;DHT22;59755;43.834;4.364;2022-09-09T04:05:54;19.90;61.50
71879;DHT22;59755;43.834;4.364;2022-09-09T04:08:21;19.90;61.70
71879;DHT22;59755;43.834;4.364;2022-09-09T04:10:50;19.80;62.40
71879;DHT22;59755;43.834;4.364;2022-09-09T04:13:17;19.70;63.20
71879;DHT22;59755;43.834;4.364;2022-09-09T04:15:44;19.60;63.60
71879;DHT22;59755;43.834;4.364;2022-09-09T04:18:10;19.50;63.90
71879;DHT22;59755;43.834;4.364;2022-09-09T04:20:37;19.50;63.90
71879;DHT22;59755;43.834;4.364;2022-09-09T04:23:03;19.30;64.60
71879;DHT22;59755;43.834;4.364;2022-09-09T04:25:29;19.30;64.80
71879;DHT22;59755;43.834;4.364;2022-09-09T04:27:56;19.30;65.00
71879;DHT22;59755;43.834;4.364;2022-09-09T04:30:23;19.10;65.70
71879;DHT22;59755;43.834;4.364;2022-09-09T04:32:48;19.10;65.80
71879;DHT22;59755;43.834;4.364;2022-09-09T04:35:14;19.20;65.20
71879;DHT22;59755;43.834;4.364;2022-09-09T04:37:40;19.30;64.80
71879;DHT22;59755;43.834;4.364;2022-09-09T04:40:07;19.40;64.50
71879;DHT22;59755;43.834;4.364;2022-09-09T04:42:38;19.50;63.90
71879;DHT22;59755;43.834;4.364;2022-09-09T04:45:06;19.50;63.60
71879;DHT22;59755;43.834;4.364;2022-09-09T04:47:32;19.60;63.60
71879;DHT22;59755;43.834;4.364;2022-09-09T04:49:58;19.60;63.60
71879;DHT22;59755;43.834;4.364;2022-09-09T04:52:24;19.60;63.60
71879;DHT22;59755;43.834;4.364;2022-09-09T04:54:50;19.50;63.70
71879;DHT22;59755;43.834;4.364;2022-09-09T04:57:15;19.50;63.70
71879;DHT22;59755;43.834;4.364;2022-09-09T04:59:41;19.60;63.50
71879;DHT22;59755;43.834;4.364;2022-09-09T05:02:07;19.60;63.50
71879;DHT22;59755;43.834;4.364;2022-09-09T05:04:32;19.60;63.30
71879;DHT22;59755;43.834;4.364;2022-09-09T05:06:58;19.70;63.00
71879;DHT22;59755;43.834;4.364;2022-09-09T05:09:24;19.70;62.90
71879;DHT22;59755;43.834;4.364;2022-09-09T05:11:50;19.80;62.10
71879;DHT22;59755;43.834;4.364;2022-09-09T05:14:16;19.90;61.60
71879;DHT22;59755;43.834;4.364;2022-09-09T05:16:44;20.00;61.50
71879;DHT22;59755;43.834;4.364;2022-09-09T05:19:10;20.00;61.10
71879;DHT22;59755;43.834;4.364;2022-09-09T05:21:37;20.10;60.70
71879;DHT22;59755;43.834;4.364;2022-09-09T05:24:03;20.10;60.60
71879;DHT22;59755;43.834;4.364;2022-09-09T05:26:28;20.10;60.60
71879;DHT22;59755;43.834;4.364;2022-09-09T05:28:58;20.20;60.10
71879;DHT22;59755;43.834;4.364;2022-09-09T05:31:26;20.30;59.90
71879;DHT22;59755;43.834;4.364;2022-09-09T05:33:54;20.30;60.10
71879;DHT22;59755;43.834;4.364;2022-09-09T05:36:21;20.40;59.90
71879;DHT22;59755;43.834;4.364;2022-09-09T05:38:47;20.50;60.00
71879;DHT22;59755;43.834;4.364;2022-09-09T05:41:14;20.50;61.00
71879;DHT22;59755;43.834;4.364;2022-09-09T05:43:43;20.50;61.30
71879;DHT22;59755;43.834;4.364;2022-09-09T05:46:12;20.60;60.10
71879;DHT22;59755;43.834;4.364;2022-09-09T05:48:39;20.60;61.30
71879;DHT22;59755;43.834;4.364;2022-09-09T05:51:08;20.70;60.10
71879;DHT22;59755;43.834;4.364;2022-09-09T05:53:34;20.70;60.60
71879;DHT22;59755;43.834;4.364;2022-09-09T05:56:02;20.70;59.80
71879;DHT22;59755;43.834;4.364;2022-09-09T05:58:31;20.80;62.30
71879;DHT22;59755;43.834;4.364;2022-09-09T06:01:16;21.10;59.50
71879;DHT22;59755;43.834;4.364;2022-09-09T06:03:43;21.20;59.90
71879;DHT22;59755;43.834;4.364;2022-09-09T06:06:11;21.40;58.40
71879;DHT22;59755;43.834;4.364;2022-09-09T06:08:39;21.20;57.80
71879;DHT22;59755;43.834;4.364;2022-09-09T06:11:10;21.20;58.00
71879;DHT22;59755;43.834;4.364;2022-09-09T06:13:38;21.30;59.50
71879;DHT22;59755;43.834;4.364;2022-09-09T06:16:05;21.40;59.20
71879;DHT22;59755;43.834;4.364;2022-09-09T06:18:32;21.50;58.60
71879;DHT22;59755;43.834;4.364;2022-09-09T06:21:00;21.60;58.60
71879;DHT22;59755;43.834;4.364;2022-09-09T06:23:27;21.40;58.30
71879;DHT22;59755;43.834;4.364;2022-09-09T06:26:09;21.50;58.00
71879;DHT22;59755;43.834;4.364;2022-09-09T06:28:36;21.40;57.80
71879;DHT22;59755;43.834;4.364;2022-09-09T06:31:07;21.40;57.70
71879;DHT22;59755;43.834;4.364;2022-09-09T06:33:38;21.40;58.90
71879;DHT22;59755;43.834;4.364;2022-09-09T06:36:12;21.50;58.40
71879;DHT22;59755;43.834;4.364;2022-09-09T06:38:39;21.80;58.50
71879;DHT22;59755;43.834;4.364;2022-09-09T06:41:05;21.90;57.40
71879;DHT22;59755;43.834;4.364;2022-09-09T06:43:31;22.00;57.50
71879;DHT22;59755;43.834;4.364;2022-09-09T06:48:24;22.00;57.00
71879;DHT22;59755;43.834;4.364;2022-09-09T06:51:00;21.80;57.70
71879;DHT22;59755;43.834;4.364;2022-09-09T06:53:26;21.90;57.20
71879;DHT22;59755;43.834;4.364;2022-09-09T06:55:52;21.80;57.10
71879;DHT22;59755;43.834;4.364;2022-09-09T06:58:18;21.80;57.50
71879;DHT22;59755;43.834;4.364;2022-09-09T07:00:44;21.70;57.30
71879;DHT22;59755;43.834;4.364;2022-09-09T07:03:10;21.60;57.40
71879;DHT22;59755;43.834;4.364;2022-09-09T07:05:36;21.60;57.70
71879;DHT22;59755;43.834;4.364;2022-09-09T07:08:02;21.70;57.10
71879;DHT22;59755;43.834;4.364;2022-09-09T07:10:28;21.70;58.60
71879;DHT22;59755;43.834;4.364;2022-09-09T07:12:54;21.60;59.90
71879;DHT22;59755;43.834;4.364;2022-09-09T07:15:20;21.40;61.10
71879;DHT22;59755;43.834;4.364;2022-09-09T07:17:50;21.40;62.40
71879;DHT22;59755;43.834;4.364;2022-09-09T07:20:15;21.40;62.10
71879;DHT22;59755;43.834;4.364;2022-09-09T07:22:41;21.40;61.90
71879;DHT22;59755;43.834;4.364;2022-09-09T07:25:07;21.40;61.90
71879;DHT22;59755;43.834;4.364;2022-09-09T07:27:33;21.40;62.50
71879;DHT22;59755;43.834;4.364;2022-09-09T07:29:59;21.30;62.80
71879;DHT22;59755;43.834;4.364;2022-09-09T07:32:25;21.30;63.40
71879;DHT22;59755;43.834;4.364;2022-09-09T07:34:55;21.30;64.20
71879;DHT22;59755;43.834;4.364;2022-09-09T07:37:23;21.30;64.30
71879;DHT22;59755;43.834;4.364;2022-09-09T07:39:49;21.20;64.70
71879;DHT22;59755;43.834;4.364;2022-09-09T07:42:16;21.20;65.00
71879;DHT22;59755;43.834;4.364;2022-09-09T07:44:42;21.20;65.60
71879;DHT22;59755;43.834;4.364;2022-09-09T07:47:08;21.00;66.50
71879;DHT22;59755;43.834;4.364;2022-09-09T07:49:34;21.10;66.40
71879;DHT22;59755;43.834;4.364;2022-09-09T07:52:00;21.00;67.00
71879;DHT22;59755;43.834;4.364;2022-09-09T07:54:26;20.90;68.20
71879;DHT22;59755;43.834;4.364;2022-09-09T07:56:52;20.90;68.90
71879;DHT22;59755;43.834;4.364;2022-09-09T07:59:18;21.30;67.10
71879;DHT22;59755;43.834;4.364;2022-09-09T08:01:49;21.50;66.80
71879;DHT22;59755;43.834;4.364;2022-09-09T08:04:19;21.60;66.60
71879;DHT22;59755;43.834;4.364;2022-09-09T08:06:57;21.70;63.70
71879;DHT22;59755;43.834;4.364;2022-09-09T08:09:23;21.70;65.30
71879;DHT22;59755;43.834;4.364;2022-09-09T08:11:52;21.60;64.70
71879;DHT22;59755;43.834;4.364;2022-09-09T08:14:18;21.40;65.20
71879;DHT22;59755;43.834;4.364;2022-09-09T08:16:46;21.30;65.70
71879;DHT22;59755;43.834;4.364;2022-09-09T08:19:13;21.60;66.30
71879;DHT22;59755;43.834;4.364;2022-09-09T08:21:40;22.00;64.10
71879;DHT22;59755;43.834;4.364;2022-09-09T08:24:08;22.20;63.10
71879;DHT22;59755;43.834;4.364;2022-09-09T08:26:40;22.20;61.50
71879;DHT22;59755;43.834;4.364;2022-09-09T08:29:08;22.10;61.60
71879;DHT22;59755;43.834;4.364;2022-09-09T08:31:50;21.90;60.60
71879;DHT22;59755;43.834;4.364;2022-09-09T08:34:17;21.80;62.10
71879;DHT22;59755;43.834;4.364;2022-09-09T08:36:45;22.00;60.70
71879;DHT22;59755;43.834;4.364;2022-09-09T08:39:14;22.00;60.60
71879;DHT22;59755;43.834;4.364;2022-09-09T08:44:42;22.30;59.30
71879;DHT22;59755;43.834;4.364;2022-09-09T08:53:14;22.60;59.80
71879;DHT22;59755;43.834;4.364;2022-09-09T08:55:53;22.70;58.20
71879;DHT22;59755;43.834;4.364;2022-09-09T08:58:32;22.70;59.60
71879;DHT22;59755;43.834;4.364;2022-09-09T09:04:06;22.80;57.40
71879;DHT22;59755;43.834;4.364;2022-09-09T09:11:58;23.10;57.70
71879;DHT22;59755;43.834;4.364;2022-09-09T09:14:28;23.20;57.30
71879;DHT22;59755;43.834;4.364;2022-09-09T09:17:04;23.30;56.50
71879;DHT22;59755;43.834;4.364;2022-09-09T09:19:34;23.50;55.40
71879;DHT22;59755;43.834;4.364;2022-09-09T09:22:17;23.50;55.50
71879;DHT22;59755;43.834;4.364;2022-09-09T09:25:18;23.70;53.00
71879;DHT22;59755;43.834;4.364;2022-09-09T09:30:22;23.90;52.70
71879;DHT22;59755;43.834;4.364;2022-09-09T09:32:55;23.90;54.50
71879;DHT22;59755;43.834;4.364;2022-09-09T09:35:23;23.90;54.00
71879;DHT22;59755;43.834;4.364;2022-09-09T09:37:49;23.90;53.20
71879;DHT22;59755;43.834;4.364;2022-09-09T09:40:21;23.90;51.90
71879;DHT22;59755;43.834;4.364;2022-09-09T09:42:55;23.80;52.20
71879;DHT22;59755;43.834;4.364;2022-09-09T09:45:41;23.80;53.50
71879;DHT22;59755;43.834;4.364;2022-09-09T09:48:11;23.90;52.70
71879;DHT22;59755;43.834;4.364;2022-09-09T09:53:27;23.90;53.30
71879;DHT22;59755;43.834;4.364;2022-09-09T09:56:05;24.10;52.70
71879;DHT22;59755;43.834;4.364;2022-09-09T10:03:52;24.10;52.20
71879;DHT22;59755;43.834;4.364;2022-09-09T10:06:29;24.20;52.70
71879;DHT22;59755;43.834;4.364;2022-09-09T10:08:56;24.30;51.50
71879;DHT22;59755;43.834;4.364;2022-09-09T10:20:36;24.70;49.90
71879;DHT22;59755;43.834;4.364;2022-09-09T10:36:49;27.20;43.80
71879;DHT22;59755;43.834;4.364;2022-09-09T10:42:07;28.40;40.60
71879;DHT22;59755;43.834;4.364;2022-09-09T10:47:49;27.20;43.60
71879;DHT22;59755;43.834;4.364;2022-09-09T10:55:47;27.30;43.40
71879;DHT22;59755;43.834;4.364;2022-09-09T10:58:19;27.40;43.20
71879;DHT22;59755;43.834;4.364;2022-09-09T11:00:51;27.80;43.00
71879;DHT22;59755;43.834;4.364;2022-09-09T11:03:29;28.40;41.40
71879;DHT22;59755;43.834;4.364;2022-09-09T11:06:16;30.00;38.60
71879;DHT22;59755;43.834;4.364;2022-09-09T11:08:43;30.70;36.10
71879;DHT22;59755;43.834;4.364;2022-09-09T11:17:31;33.90;32.00
71879;DHT22;59755;43.834;4.364;2022-09-09T11:20:01;33.70;31.90
71879;DHT22;59755;43.834;4.364;2022-09-09T11:22:47;34.10;31.50
71879;DHT22;59755;43.834;4.364;2022-09-09T11:25:26;34.90;30.80
71879;DHT22;59755;43.834;4.364;2022-09-09T11:36:54;35.70;28.90
71879;DHT22;59755;43.834;4.364;2022-09-09T11:42:19;34.00;31.10
71879;DHT22;59755;43.834;4.364;2022-09-09T11:44:46;32.80;32.40
71879;DHT22;59755;43.834;4.364;2022-09-09T11:47:26;33.70;31.30
71879;DHT22;59755;43.834;4.364;2022-09-09T11:50:07;35.00;30.50
71879;DHT22;59755;43.834;4.364;2022-09-09T11:52:42;35.80;29.60
71879;DHT22;59755;43.834;4.364;2022-09-09T11:55:31;36.30;28.70
71879;DHT22;59755;43.834;4.364;2022-09-09T11:58:14;36.40;28.20
71879;DHT22;59755;43.834;4.364;2022-09-09T12:00:43;35.70;28.60
71879;DHT22;59755;43.834;4.364;2022-09-09T12:05:56;36.80;27.60
71879;DHT22;59755;43.834;4.364;2022-09-09T12:08:28;36.60;27.80
71879;DHT22;59755;43.834;4.364;2022-09-09T12:10:58;36.50;27.70
71879;DHT22;59755;43.834;4.364;2022-09-09T12:13:28;36.60;27.90
71879;DHT22;59755;43.834;4.364;2022-09-09T12:15:57;35.70;28.20
71879;DHT22;59755;43.834;4.364;2022-09-09T12:18:35;35.60;28.80
71879;DHT22;59755;43.834;4.364;2022-09-09T12:21:14;35.60;28.60
71879;DHT22;59755;43.834;4.364;2022-09-09T12:23:49;35.80;28.60
71879;DHT22;59755;43.834;4.364;2022-09-09T12:26:33;35.60;29.40
71879;DHT22;59755;43.834;4.364;2022-09-09T12:32:22;32.90;32.80
71879;DHT22;59755;43.834;4.364;2022-09-09T12:35:02;33.30;32.30
71879;DHT22;59755;43.834;4.364;2022-09-09T12:37:42;32.80;32.70
71879;DHT22;59755;43.834;4.364;2022-09-09T12:40:25;33.30;32.20
71879;DHT22;59755;43.834;4.364;2022-09-09T12:42:52;34.50;30.90
71879;DHT22;59755;43.834;4.364;2022-09-09T12:45:20;33.30;32.70
71879;DHT22;59755;43.834;4.364;2022-09-09T12:48:10;32.50;33.90
71879;DHT22;59755;43.834;4.364;2022-09-09T12:50:50;34.30;31.80
71879;DHT22;59755;43.834;4.364;2022-09-09T12:53:22;35.30;30.70
71879;DHT22;59755;43.834;4.364;2022-09-09T12:56:09;35.10;31.20
71879;DHT22;59755;43.834;4.364;2022-09-09T12:58:46;33.20;33.40
71879;DHT22;59755;43.834;4.364;2022-09-09T13:01:32;32.80;33.60
71879;DHT22;59755;43.834;4.364;2022-09-09T13:03:59;31.60;35.90
71879;DHT22;59755;43.834;4.364;2022-09-09T13:06:28;30.90;37.10
71879;DHT22;59755;43.834;4.364;2022-09-09T13:08:56;30.50;37.90
71879;DHT22;59755;43.834;4.364;2022-09-09T13:13:55;29.20;39.20
71879;DHT22;59755;43.834;4.364;2022-09-09T13:16:33;28.80;39.60
71879;DHT22;59755;43.834;4.364;2022-09-09T13:19:08;28.70;40.50
71879;DHT22;59755;43.834;4.364;2022-09-09T13:21:37;29.60;39.80
71879;DHT22;59755;43.834;4.364;2022-09-09T13:26:58;29.10;39.40
71879;DHT22;59755;43.834;4.364;2022-09-09T13:29:24;28.80;40.30
71879;DHT22;59755;43.834;4.364;2022-09-09T13:31:50;30.60;37.20
71879;DHT22;59755;43.834;4.364;2022-09-09T13:34:29;30.70;37.20
71879;DHT22;59755;43.834;4.364;2022-09-09T13:37:03;30.10;37.10
71879;DHT22;59755;43.834;4.364;2022-09-09T13:39:33;29.50;38.50
71879;DHT22;59755;43.834;4.364;2022-09-09T13:42:02;30.50;37.50
71879;DHT22;59755;43.834;4.364;2022-09-09T13:44:38;32.20;34.60
71879;DHT22;59755;43.834;4.364;2022-09-09T13:47:20;31.50;35.20
71879;DHT22;59755;43.834;4.364;2022-09-09T13:49:46;30.80;37.50
71879;DHT22;59755;43.834;4.364;2022-09-09T13:52:17;31.50;35.90
71879;DHT22;59755;43.834;4.364;2022-09-09T13:54:53;32.20;35.20
71879;DHT22;59755;43.834;4.364;2022-09-09T13:57:24;33.50;33.40
71879;DHT22;59755;43.834;4.364;2022-09-09T13:59:52;35.90;30.20
71879;DHT22;59755;43.834;4.364;2022-09-09T14:02:18;36.80;29.10
71879;DHT22;59755;43.834;4.364;2022-09-09T14:04:44;37.10;28.90
